Time;durP1;ratioP1;P1;durP2;ratioP2;P2;SDS_P1;SDS_P2;PMS_P1;PMS_P2;Temp;Humidity;BMP_temperature;BMP_pressure;BME280_temperature;BME280_humidity;BME280_pressure;Samples;Min_cycle;Max_cycle;Signal;HPM_P1;HPM_P2
2021/01/25 00:00:32;;;;;;;6.22;5.47;;;6.60;63.80;;;;;;2094021;28;20036;-58
2021/01/25 00:01:53;;;;;;;7.00;5.68;;;6.60;63.80;;;;;;2096809;28;20037;-60
2021/01/25 00:03:14;;;;;;;6.65;5.57;;;6.60;63.90;;;;;;2096722;28;20027;-58
2021/01/25 00:04:35;;;;;;;6.25;5.40;;;6.50;64.00;;;;;;2096047;28;20414;-60
2021/01/25 00:05:56;;;;;;;6.05;5.07;;;6.50;63.90;;;;;;2100415;28;20047;-59
2021/01/25 00:07:16;;;;;;;7.43;5.88;;;6.50;64.00;;;;;;2096861;28;20119;-59
2021/01/25 00:08:38;;;;;;;6.65;5.00;;;6.50;64.00;;;;;;2093248;28;20111;-59
2021/01/25 00:09:59;;;;;;;7.57;6.00;;;6.50;64.10;;;;;;2097051;28;20024;-60
2021/01/25 00:11:20;;;;;;;8.43;5.47;;;6.50;64.20;;;;;;2097771;28;20484;-59
2021/01/25 00:12:41;;;;;;;5.50;5.00;;;6.50;64.20;;;;;;2094976;28;20024;-58
2021/01/25 00:14:02;;;;;;;6.20;5.60;;;6.50;64.20;;;;;;2094746;28;20096;-60
2021/01/25 00:15:23;;;;;;;6.03;5.25;;;6.50;64.30;;;;;;2091383;28;20095;-61
2021/01/25 00:16:43;;;;;;;6.43;5.75;;;6.50;64.30;;;;;;2096791;28;20423;-60
2021/01/25 00:18:04;;;;;;;6.10;5.50;;;6.50;64.30;;;;;;2094772;28;20115;-61
2021/01/25 00:19:25;;;;;;;5.53;5.03;;;6.50;64.30;;;;;;2098949;28;20024;-60
2021/01/25 00:20:46;;;;;;;7.60;5.63;;;6.50;64.20;;;;;;2089348;28;20071;-60
2021/01/25 00:22:07;;;;;;;6.38;5.18;;;6.50;64.20;;;;;;2094023;28;20060;-60
2021/01/25 00:23:28;;;;;;;7.03;5.25;;;6.50;64.30;;;;;;2097986;28;20024;-60
2021/01/25 00:24:49;;;;;;;6.55;5.57;;;6.50;64.20;;;;;;2097245;28;20101;-60
2021/01/25 00:26:10;;;;;;;6.22;5.63;;;6.50;64.30;;;;;;2095999;28;20317;-60
2021/01/25 00:27:31;;;;;;;6.28;5.50;;;6.50;64.40;;;;;;2092814;28;20020;-60
2021/01/25 00:28:52;;;;;;;6.07;5.53;;;6.50;64.40;;;;;;2098113;28;20028;-60
2021/01/25 00:30:19;;;;;;;6.05;5.45;;;6.50;64.40;;;;;;2092057;28;20036;-60
2021/01/25 00:31:39;;;;;;;6.35;5.43;;;6.50;64.50;;;;;;2097818;28;20108;-60
2021/01/25 00:33:00;;;;;;;6.97;5.45;;;6.50;64.40;;;;;;2092770;28;20021;-60
2021/01/25 00:34:22;;;;;;;6.20;5.57;;;6.50;64.40;;;;;;2094021;28;20040;-60
2021/01/25 00:35:42;;;;;;;5.85;5.07;;;6.50;64.30;;;;;;2094192;28;20025;-60
2021/01/25 00:37:03;;;;;;;7.90;5.32;;;6.50;64.20;;;;;;2095492;28;20032;-60
2021/01/25 00:38:24;;;;;;;9.27;5.40;;;6.50;64.30;;;;;;2097986;28;20073;-60
2021/01/25 00:39:45;;;;;;;7.00;5.75;;;6.50;64.30;;;;;;2096517;28;20029;-60
2021/01/25 00:41:06;;;;;;;8.98;5.82;;;6.50;64.20;;;;;;2095423;28;20040;-60
2021/01/25 00:42:27;;;;;;;6.72;5.30;;;6.50;64.20;;;;;;2092873;28;20033;-59
2021/01/25 00:43:48;;;;;;;7.45;5.45;;;6.50;64.20;;;;;;2096996;28;20071;-59
2021/01/25 00:45:09;;;;;;;7.63;5.70;;;6.50;64.30;;;;;;2097243;28;20039;-59
2021/01/25 00:46:30;;;;;;;7.35;5.82;;;6.50;65.00;;;;;;2093311;28;20029;-59
2021/01/25 00:47:51;;;;;;;6.43;5.38;;;6.50;64.40;;;;;;2095729;28;20079;-59
2021/01/25 00:49:12;;;;;;;7.97;5.93;;;6.40;64.40;;;;;;2096967;28;20489;-58
2021/01/25 00:50:33;;;;;;;6.68;5.32;;;6.50;64.50;;;;;;2093001;28;20509;-59
2021/01/25 00:51:54;;;;;;;7.05;5.95;;;6.50;64.50;;;;;;2096478;28;20154;-60
2021/01/25 00:53:15;;;;;;;7.93;5.97;;;6.50;64.50;;;;;;2097928;28;20032;-58
2021/01/25 00:54:36;;;;;;;7.00;6.28;;;6.50;64.60;;;;;;2095966;28;20367;-59
2021/01/25 00:55:56;;;;;;;7.20;6.15;;;6.50;64.60;;;;;;2097808;28;20024;-61
2021/01/25 00:57:17;;;;;;;6.53;5.80;;;6.50;64.60;;;;;;2097557;28;20052;-59
2021/01/25 00:58:39;;;;;;;8.63;6.07;;;6.50;64.60;;;;;;2097621;28;20097;-60
2021/01/25 01:00:00;;;;;;;7.15;6.05;;;6.50;64.60;;;;;;2097494;28;20020;-60
2021/01/25 01:01:21;;;;;;;7.68;5.53;;;6.50;64.60;;;;;;2096673;28;20050;-60
2021/01/25 01:02:42;;;;;;;7.65;5.82;;;6.50;64.70;;;;;;2095436;28;20029;-58
2021/01/25 01:04:03;;;;;;;7.38;6.13;;;6.50;64.60;;;;;;2096019;28;20455;-59
2021/01/25 01:05:23;;;;;;;8.35;5.70;;;6.50;64.70;;;;;;2098671;28;20024;-59
2021/01/25 01:06:44;;;;;;;7.18;6.00;;;6.50;64.70;;;;;;2096955;28;20024;-60
2021/01/25 01:08:05;;;;;;;7.05;6.15;;;6.40;64.60;;;;;;2095368;28;20115;-58
2021/01/25 01:09:26;;;;;;;6.68;5.70;;;6.50;64.70;;;;;;2092513;28;20033;-60
2021/01/25 01:10:47;;;;;;;6.70;5.85;;;6.50;64.70;;;;;;2097140;28;20352;-60
2021/01/25 01:12:08;;;;;;;7.38;5.93;;;6.50;64.70;;;;;;2095714;28;20072;-61
2021/01/25 01:13:29;;;;;;;7.72;5.78;;;6.50;64.70;;;;;;2093848;28;20025;-60
2021/01/25 01:14:50;;;;;;;6.28;5.68;;;6.50;64.70;;;;;;2090792;28;20040;-60
2021/01/25 01:16:11;;;;;;;7.88;6.00;;;6.50;64.80;;;;;;2097162;28;20028;-58
2021/01/25 01:17:32;;;;;;;6.63;5.70;;;6.50;64.90;;;;;;2094099;28;20043;-61
2021/01/25 01:18:53;;;;;;;6.90;5.85;;;6.50;64.90;;;;;;2099985;28;20098;-61
2021/01/25 01:20:14;;;;;;;9.10;6.00;;;6.40;64.90;;;;;;2099985;28;20021;-60
2021/01/25 01:21:35;;;;;;;5.57;5.07;;;6.50;64.90;;;;;;2095457;28;20020;-60
2021/01/25 01:22:55;;;;;;;6.97;6.00;;;6.50;64.90;;;;;;2100273;28;20064;-60
2021/01/25 01:24:16;;;;;;;7.55;5.88;;;6.50;64.90;;;;;;2099856;28;20024;-60
2021/01/25 01:25:37;;;;;;;8.27;6.15;;;6.50;64.90;;;;;;2096870;28;20032;-60
2021/01/25 01:26:58;;;;;;;6.07;5.35;;;6.50;65.00;;;;;;2100872;28;20536;-61
2021/01/25 01:28:19;;;;;;;6.90;5.68;;;6.50;65.00;;;;;;2094190;28;20068;-60
2021/01/25 01:29:40;;;;;;;6.10;5.50;;;6.50;65.10;;;;;;2097438;28;20025;-58
2021/01/25 01:31:01;;;;;;;6.40;5.70;;;6.50;65.10;;;;;;2097239;28;20040;-58
2021/01/25 01:32:22;;;;;;;5.65;5.10;;;6.50;65.20;;;;;;2100415;28;20111;-58
2021/01/25 01:33:43;;;;;;;6.57;5.75;;;6.50;65.10;;;;;;2100152;28;20025;-61
2021/01/25 01:35:05;;;;;;;5.72;5.18;;;6.50;65.20;;;;;;2100232;28;20024;-60
2021/01/25 01:36:26;;;;;;;6.70;5.88;;;6.50;65.10;;;;;;2099341;28;20051;-58
2021/01/25 01:37:47;;;;;;;6.05;5.35;;;6.50;65.00;;;;;;2092688;28;20115;-58
2021/01/25 01:39:08;;;;;;;6.30;5.20;;;6.50;65.10;;;;;;2096540;28;20024;-58
2021/01/25 01:40:29;;;;;;;8.00;5.70;;;6.50;65.10;;;;;;2095505;28;20025;-59
2021/01/25 01:41:50;;;;;;;6.10;5.50;;;6.50;65.00;;;;;;2102167;28;20530;-60
2021/01/25 01:43:11;;;;;;;6.75;5.65;;;6.50;65.00;;;;;;2098744;28;20024;-58
2021/01/25 01:44:32;;;;;;;7.18;5.68;;;6.50;65.10;;;;;;2097855;28;20028;-60
2021/01/25 01:45:53;;;;;;;6.97;5.07;;;6.50;65.10;;;;;;2102217;28;20021;-59
2021/01/25 01:47:19;;;;;;;6.13;5.35;;;6.50;65.10;;;;;;2100698;28;20040;-60
2021/01/25 01:48:40;;;;;;;6.32;5.68;;;6.50;65.20;;;;;;2097981;28;20028;-59
2021/01/25 01:50:04;;;;;;;6.65;5.60;;;6.50;65.20;;;;;;2100141;28;20111;-58
2021/01/25 01:51:25;;;;;;;6.00;5.38;;;6.50;65.20;;;;;;2099236;28;20036;-58
2021/01/25 01:52:47;;;;;;;5.63;5.13;;;6.50;65.10;;;;;;2099403;28;20028;-58
2021/01/25 01:54:09;;;;;;;6.20;5.60;;;6.50;65.00;;;;;;2097979;28;20032;-59
2021/01/25 01:55:30;;;;;;;6.38;5.63;;;6.50;65.00;;;;;;2095467;28;20012;-61
2021/01/25 01:56:51;;;;;;;6.45;5.68;;;6.50;65.00;;;;;;2100060;28;20091;-61
2021/01/25 01:58:13;;;;;;;6.03;5.43;;;6.50;64.90;;;;;;2095074;28;20025;-59
2021/01/25 01:59:35;;;;;;;6.53;5.53;;;6.50;64.90;;;;;;2095306;28;20017;-60
2021/01/25 02:00:56;;;;;;;6.25;5.25;;;6.60;65.10;;;;;;2096531;28;20322;-60
2021/01/25 02:02:17;;;;;;;5.47;4.93;;;6.50;64.90;;;;;;2098021;28;20122;-61
2021/01/25 02:03:38;;;;;;;6.13;5.53;;;6.50;64.90;;;;;;2099230;28;20032;-61
2021/01/25 02:05:00;;;;;;;6.00;5.40;;;6.50;64.90;;;;;;2099763;28;20098;-61
2021/01/25 02:06:23;;;;;;;8.75;5.88;;;6.50;64.90;;;;;;2095024;28;20182;-61
2021/01/25 02:07:49;;;;;;;7.20;5.90;;;6.50;64.90;;;;;;2091870;28;20044;-60
2021/01/25 02:09:11;;;;;;;8.48;5.78;;;6.50;64.90;;;;;;2098208;28;20031;-60
2021/01/25 02:10:32;;;;;;;6.03;5.40;;;6.50;64.90;;;;;;2097631;28;20096;-59
2021/01/25 02:11:54;;;;;;;6.70;5.55;;;6.50;65.00;;;;;;2098834;28;20025;-60
2021/01/25 02:13:16;;;;;;;5.53;4.97;;;6.50;64.90;;;;;;2099360;28;20083;-60
2021/01/25 02:14:38;;;;;;;6.10;5.53;;;6.50;64.90;;;;;;2099054;28;20459;-60
2021/01/25 02:16:01;;;;;;;6.20;5.60;;;6.50;64.90;;;;;;2100565;28;20024;-61
2021/01/25 02:17:22;;;;;;;8.90;6.28;;;6.50;65.00;;;;;;2098617;28;20116;-61
2021/01/25 02:18:43;;;;;;;6.35;5.70;;;6.50;65.00;;;;;;2097894;28;20025;-61
2021/01/25 02:20:10;;;;;;;7.78;5.97;;;6.50;65.10;;;;;;2099572;28;20020;-60
2021/01/25 02:21:33;;;;;;;6.47;5.78;;;6.50;65.00;;;;;;2095375;28;20016;-60
2021/01/25 02:23:07;;;;;;;6.32;5.70;;;6.50;64.90;;;;;;2100248;28;20119;-59
2021/01/25 02:24:38;;;;;;;5.97;5.35;;;6.50;65.10;;;;;;2097341;28;20471;-60
2021/01/25 02:26:26;;;;;;;5.68;5.15;;;6.50;65.10;;;;;;2096780;28;20415;-60
2021/01/25 02:27:48;;;;;;;5.55;5.05;;;6.50;65.10;;;;;;2097661;28;20438;-60
2021/01/25 02:29:09;;;;;;;6.18;5.07;;;6.50;64.90;;;;;;2098623;28;20021;-59
2021/01/25 02:30:30;;;;;;;5.65;5.03;;;6.50;64.90;;;;;;2094554;28;20071;-60
2021/01/25 02:31:52;;;;;;;5.82;5.32;;;6.50;64.90;;;;;;2096926;28;20036;-60
2021/01/25 02:33:15;;;;;;;5.57;5.05;;;6.50;65.00;;;;;;2094234;28;20444;-60
2021/01/25 02:34:37;;;;;;;6.03;5.10;;;6.50;65.10;;;;;;2097146;28;20079;-60
2021/01/25 02:35:59;;;;;;;8.55;5.15;;;6.50;65.10;;;;;;2098537;28;20048;-59
2021/01/25 02:37:22;;;;;;;6.88;5.38;;;6.50;65.10;;;;;;2098838;28;20132;-59
2021/01/25 02:38:48;;;;;;;5.88;5.30;;;6.50;65.10;;;;;;2097330;28;20036;-60
2021/01/25 02:40:12;;;;;;;5.63;5.13;;;6.50;65.10;;;;;;2097687;28;20025;-60
2021/01/25 02:41:34;;;;;;;5.97;5.32;;;6.50;65.10;;;;;;2099677;28;20028;-60
2021/01/25 02:42:56;;;;;;;5.28;4.72;;;6.50;65.10;;;;;;2099778;28;20024;-60
2021/01/25 02:44:19;;;;;;;7.00;5.25;;;6.50;65.10;;;;;;2095375;28;20036;-60
2021/01/25 02:45:42;;;;;;;6.07;5.47;;;6.50;65.20;;;;;;2099259;28;20033;-59
2021/01/25 02:47:03;;;;;;;6.13;4.68;;;6.50;65.10;;;;;;2096951;28;20452;-59
2021/01/25 02:48:24;;;;;;;6.50;5.38;;;6.50;65.20;;;;;;2095772;28;20082;-60
2021/01/25 02:49:46;;;;;;;7.57;5.32;;;6.50;65.10;;;;;;2098411;28;20368;-59
2021/01/25 02:51:07;;;;;;;6.72;5.10;;;6.50;65.20;;;;;;2098273;28;20059;-59
2021/01/25 02:52:28;;;;;;;6.05;5.45;;;6.60;65.30;;;;;;2099115;28;20242;-60
2021/01/25 02:53:49;;;;;;;5.72;5.18;;;6.50;65.10;;;;;;2089591;28;20024;-59
2021/01/25 02:55:10;;;;;;;6.18;5.40;;;6.50;65.00;;;;;;2095394;28;20025;-60
2021/01/25 02:56:31;;;;;;;5.57;5.07;;;6.50;65.10;;;;;;2094981;28;20024;-60
2021/01/25 02:57:55;;;;;;;6.07;5.47;;;6.60;65.10;;;;;;2098409;28;20029;-60
2021/01/25 02:59:17;;;;;;;4.88;4.47;;;6.50;65.00;;;;;;2097590;28;20044;-60
2021/01/25 03:00:38;;;;;;;5.80;5.13;;;6.50;65.10;;;;;;2094655;28;20074;-60
2021/01/25 03:01:59;;;;;;;5.90;5.22;;;6.60;65.20;;;;;;2090323;28;20063;-60
2021/01/25 03:03:23;;;;;;;5.43;4.90;;;6.50;65.10;;;;;;2095516;28;20108;-60
2021/01/25 03:04:44;;;;;;;5.72;4.95;;;6.50;65.20;;;;;;2097035;28;20099;-60
2021/01/25 03:06:05;;;;;;;5.60;5.10;;;6.50;65.20;;;;;;2097199;28;20091;-60
2021/01/25 03:07:27;;;;;;;5.68;5.18;;;6.50;65.20;;;;;;2092725;28;20039;-60
2021/01/25 03:08:48;;;;;;;5.65;4.57;;;6.50;65.10;;;;;;2097734;28;20029;-60
2021/01/25 03:10:10;;;;;;;6.50;5.00;;;6.50;65.20;;;;;;2096953;28;20039;-60
2021/01/25 03:11:30;;;;;;;5.93;5.32;;;6.50;65.20;;;;;;2092185;28;20032;-60
2021/01/25 03:12:52;;;;;;;5.90;5.13;;;6.50;65.10;;;;;;2097909;28;20032;-60
2021/01/25 03:14:13;;;;;;;6.28;5.63;;;6.50;65.20;;;;;;2098832;28;20036;-61
2021/01/25 03:15:36;;;;;;;5.70;5.07;;;6.50;65.20;;;;;;2099843;28;20052;-61
2021/01/25 03:16:57;;;;;;;5.47;5.00;;;6.50;65.20;;;;;;2097033;28;20071;-60
2021/01/25 03:18:18;;;;;;;5.40;4.90;;;6.50;65.10;;;;;;2095435;28;20032;-60
2021/01/25 03:19:39;;;;;;;5.65;5.05;;;6.50;65.20;;;;;;2098168;28;20036;-60
2021/01/25 03:21:00;;;;;;;6.15;5.30;;;6.50;65.20;;;;;;2095738;28;20032;-60
2021/01/25 03:22:21;;;;;;;5.35;4.85;;;6.50;65.20;;;;;;2099074;28;20115;-60
2021/01/25 03:23:42;;;;;;;5.60;5.07;;;6.50;65.10;;;;;;2098232;28;20059;-60
2021/01/25 03:25:04;;;;;;;5.80;4.88;;;6.50;65.20;;;;;;2096210;28;20031;-60
2021/01/25 03:26:25;;;;;;;5.38;4.88;;;6.60;65.30;;;;;;2098988;28;20031;-60
2021/01/25 03:27:46;;;;;;;5.00;4.60;;;6.50;65.10;;;;;;2098920;28;20029;-61
2021/01/25 03:29:07;;;;;;;5.82;5.18;;;6.50;65.20;;;;;;2102968;28;20024;-60
2021/01/25 03:30:28;;;;;;;5.90;5.05;;;6.50;65.20;;;;;;2097382;28;20071;-60
2021/01/25 03:31:49;;;;;;;6.90;5.22;;;6.50;65.20;;;;;;2097329;28;20083;-60
2021/01/25 03:33:10;;;;;;;6.57;5.25;;;6.50;65.20;;;;;;2093914;28;20040;-61
2021/01/25 03:34:31;;;;;;;6.55;5.22;;;6.50;65.10;;;;;;2096583;28;20657;-61
2021/01/25 03:35:52;;;;;;;7.05;5.63;;;6.50;65.10;;;;;;2096485;28;20033;-60
2021/01/25 03:37:13;;;;;;;6.90;5.47;;;6.50;65.20;;;;;;2097199;28;20132;-61
2021/01/25 03:38:33;;;;;;;6.72;5.70;;;6.50;65.20;;;;;;2097353;28;20027;-60
2021/01/25 03:39:54;;;;;;;6.10;5.10;;;6.50;65.20;;;;;;2098095;28;20032;-60
2021/01/25 03:41:16;;;;;;;5.70;5.10;;;6.50;65.20;;;;;;2098210;28;20025;-60
2021/01/25 03:42:37;;;;;;;5.70;5.18;;;6.50;65.20;;;;;;2095019;28;20047;-61
2021/01/25 03:43:59;;;;;;;5.90;5.35;;;6.50;65.20;;;;;;2094081;28;20029;-60
2021/01/25 03:45:20;;;;;;;5.60;5.10;;;6.50;65.20;;;;;;2091645;28;20025;-60
2021/01/25 03:46:45;;;;;;;5.72;5.22;;;6.50;65.20;;;;;;2092539;28;20029;-58
2021/01/25 03:48:07;;;;;;;5.78;5.30;;;6.50;66.00;;;;;;2098350;28;20036;-60
2021/01/25 03:49:28;;;;;;;6.10;5.35;;;6.50;65.30;;;;;;2093226;28;20039;-60
2021/01/25 03:50:49;;;;;;;6.90;5.40;;;6.50;65.30;;;;;;2095835;28;20078;-60
2021/01/25 03:52:10;;;;;;;6.55;5.43;;;6.50;65.30;;;;;;2097195;28;20040;-60
2021/01/25 03:53:32;;;;;;;6.93;5.50;;;6.50;65.20;;;;;;2099293;28;20029;-60
2021/01/25 03:54:53;;;;;;;6.47;5.47;;;6.50;65.40;;;;;;2096842;28;20029;-61
2021/01/25 03:56:15;;;;;;;6.30;5.55;;;6.60;65.50;;;;;;2097930;28;20032;-61
2021/01/25 03:57:36;;;;;;;5.93;5.32;;;6.60;65.50;;;;;;2097385;28;20582;-60
2021/01/25 03:58:57;;;;;;;5.93;5.35;;;6.60;65.40;;;;;;2097432;28;20032;-60
2021/01/25 04:00:21;;;;;;;6.63;5.32;;;6.60;65.40;;;;;;2097474;28;20040;-60
2021/01/25 04:01:42;;;;;;;6.35;5.57;;;6.60;65.40;;;;;;2094896;28;20487;-61
2021/01/25 04:03:03;;;;;;;5.88;5.28;;;6.60;65.40;;;;;;2091427;28;20118;-60
2021/01/25 04:04:24;;;;;;;6.18;5.60;;;6.60;65.40;;;;;;2097280;28;20036;-60
2021/01/25 04:05:46;;;;;;;6.30;5.70;;;6.60;65.40;;;;;;2096402;28;20075;-60
2021/01/25 04:07:07;;;;;;;8.07;5.63;;;6.60;65.30;;;;;;2096494;28;20036;-60
2021/01/25 04:08:28;;;;;;;5.90;5.30;;;6.60;65.40;;;;;;2093767;28;20059;-60
2021/01/25 04:09:49;;;;;;;6.93;5.95;;;6.60;65.40;;;;;;2096729;28;20440;-61
2021/01/25 04:11:10;;;;;;;7.00;5.82;;;6.60;65.30;;;;;;2095919;28;20028;-61
2021/01/25 04:12:31;;;;;;;6.72;5.90;;;6.60;65.30;;;;;;2095824;28;20040;-60
2021/01/25 04:13:52;;;;;;;6.20;5.68;;;6.60;65.30;;;;;;2097271;28;20040;-60
2021/01/25 04:15:13;;;;;;;6.53;5.72;;;6.60;65.30;;;;;;2093880;28;20023;-59
2021/01/25 04:16:34;;;;;;;7.88;5.95;;;6.60;65.30;;;;;;2093463;28;20025;-59
2021/01/25 04:17:55;;;;;;;6.47;5.88;;;6.60;65.30;;;;;;2095890;28;20029;-60
2021/01/25 04:19:16;;;;;;;6.65;5.80;;;6.60;65.20;;;;;;2097666;28;20082;-60
2021/01/25 04:20:36;;;;;;;7.07;5.82;;;6.60;65.20;;;;;;2095248;28;20355;-60
2021/01/25 04:21:57;;;;;;;6.75;6.05;;;6.70;65.30;;;;;;2097580;28;20037;-60
2021/01/25 04:23:18;;;;;;;6.18;5.57;;;6.60;65.10;;;;;;2098288;28;20020;-60
2021/01/25 04:24:39;;;;;;;6.10;5.50;;;6.70;65.20;;;;;;2096025;28;20038;-60
2021/01/25 04:26:00;;;;;;;7.28;6.13;;;6.60;65.10;;;;;;2097164;28;20040;-61
2021/01/25 04:27:22;;;;;;;6.28;5.68;;;6.70;65.20;;;;;;2092392;28;20116;-59
2021/01/25 04:28:43;;;;;;;8.30;5.93;;;6.70;65.10;;;;;;2098117;28;20036;-59
2021/01/25 04:30:09;;;;;;;6.13;5.63;;;6.60;65.10;;;;;;2091250;28;20033;-60
2021/01/25 04:31:30;;;;;;;9.75;6.38;;;6.70;65.10;;;;;;2095520;28;20041;-59
2021/01/25 04:32:51;;;;;;;6.47;5.85;;;6.70;65.10;;;;;;2096214;28;20120;-59
2021/01/25 04:34:12;;;;;;;7.57;6.13;;;6.60;65.10;;;;;;2086577;28;20068;-59
2021/01/25 04:35:33;;;;;;;8.77;6.15;;;6.70;65.10;;;;;;2092015;28;20028;-60
2021/01/25 04:36:54;;;;;;;7.10;6.38;;;6.70;65.10;;;;;;2097350;28;20447;-59
2021/01/25 04:38:15;;;;;;;7.70;6.38;;;6.70;65.10;;;;;;2097221;28;20447;-60
2021/01/25 04:39:37;;;;;;;8.60;7.22;;;6.70;65.00;;;;;;2096710;28;20039;-60
2021/01/25 04:40:58;;;;;;;7.15;6.40;;;6.70;65.00;;;;;;2097039;28;20029;-60
2021/01/25 04:42:19;;;;;;;7.20;6.40;;;6.60;65.00;;;;;;2097644;28;20079;-60
2021/01/25 04:43:40;;;;;;;6.50;5.78;;;6.70;65.20;;;;;;2093533;28;20060;-60
2021/01/25 04:45:03;;;;;;;7.03;6.32;;;6.70;65.20;;;;;;2097866;28;20443;-60
2021/01/25 04:46:24;;;;;;;7.82;6.60;;;6.70;65.10;;;;;;2094189;28;20032;-60
2021/01/25 04:47:47;;;;;;;7.88;6.47;;;6.60;65.10;;;;;;2096420;28;20043;-60
2021/01/25 04:49:09;;;;;;;8.82;6.28;;;6.70;65.10;;;;;;2096648;28;20025;-59
2021/01/25 04:50:30;;;;;;;8.27;6.47;;;6.70;65.10;;;;;;2097189;28;20067;-60
2021/01/25 04:51:53;;;;;;;8.35;6.82;;;6.70;65.10;;;;;;2097258;28;20111;-59
2021/01/25 04:53:15;;;;;;;7.57;6.45;;;6.70;65.10;;;;;;2096040;28;20104;-60
2021/01/25 04:54:38;;;;;;;7.32;6.00;;;6.70;65.10;;;;;;2095677;28;20037;-60
2021/01/25 04:55:59;;;;;;;8.05;6.53;;;6.70;65.10;;;;;;2096328;28;20127;-59
2021/01/25 04:57:21;;;;;;;9.18;6.65;;;6.70;65.20;;;;;;2091492;28;20036;-59
2021/01/25 04:58:42;;;;;;;8.13;6.93;;;6.70;65.20;;;;;;2094702;28;20127;-60
2021/01/25 05:00:08;;;;;;;6.55;5.93;;;6.70;65.20;;;;;;2095318;28;20119;-60
2021/01/25 05:01:29;;;;;;;7.00;6.38;;;6.70;65.20;;;;;;2093347;28;20063;-60
2021/01/25 05:02:50;;;;;;;8.70;6.75;;;6.70;65.30;;;;;;2094567;28;20029;-60
2021/01/25 05:04:11;;;;;;;6.60;5.97;;;6.70;65.20;;;;;;2094911;28;20025;-60
2021/01/25 05:05:32;;;;;;;9.07;7.20;;;6.70;65.30;;;;;;2098898;28;20462;-60
2021/01/25 05:06:52;;;;;;;7.97;6.30;;;6.70;65.20;;;;;;2088698;28;20269;-59
2021/01/25 05:08:13;;;;;;;9.50;7.75;;;6.70;65.20;;;;;;2092433;28;20395;-60
2021/01/25 05:09:34;;;;;;;7.78;6.47;;;6.70;65.30;;;;;;2096439;28;20033;-60
2021/01/25 05:10:55;;;;;;;7.60;6.72;;;6.80;65.30;;;;;;2097102;28;20059;-60
2021/01/25 05:12:16;;;;;;;9.23;7.40;;;6.70;65.20;;;;;;2092204;28;20043;-60
2021/01/25 05:13:38;;;;;;;7.93;6.40;;;6.80;65.30;;;;;;2094298;28;20074;-60
2021/01/25 05:14:59;;;;;;;8.48;7.53;;;6.70;65.20;;;;;;2095773;28;20024;-60
2021/01/25 05:16:21;;;;;;;8.30;6.50;;;6.80;65.20;;;;;;2096959;28;20601;-60
2021/01/25 05:17:45;;;;;;;8.63;6.55;;;6.70;65.10;;;;;;2094518;28;20491;-60
2021/01/25 05:19:06;;;;;;;7.03;6.43;;;6.80;65.10;;;;;;2095771;28;20067;-60
2021/01/25 05:20:29;;;;;;;7.75;6.93;;;6.80;65.20;;;;;;2097129;28;20052;-60
2021/01/25 05:21:51;;;;;;;7.22;6.30;;;6.80;65.10;;;;;;2097158;28;20055;-60
2021/01/25 05:23:14;;;;;;;11.13;7.53;;;6.80;65.10;;;;;;2097102;28;20037;-60
2021/01/25 05:24:43;;;;;;;7.65;6.88;;;6.80;65.10;;;;;;2093297;28;20705;-61
2021/01/25 05:26:09;;;;;;;9.50;7.20;;;6.80;65.00;;;;;;2094184;28;20379;-61
2021/01/25 05:27:30;;;;;;;7.28;6.57;;;6.80;65.00;;;;;;2093184;28;20029;-61
2021/01/25 05:28:52;;;;;;;8.00;7.18;;;6.80;65.40;;;;;;2098366;28;20032;-60
2021/01/25 05:30:14;;;;;;;8.32;6.88;;;6.80;65.10;;;;;;2095138;28;20041;-58
2021/01/25 05:31:34;;;;;;;9.07;7.43;;;6.80;65.10;;;;;;2092777;28;20032;-61
2021/01/25 05:32:58;;;;;;;8.35;7.05;;;6.80;65.10;;;;;;2096349;28;20447;-60
2021/01/25 05:34:20;;;;;;;8.85;6.88;;;6.80;65.00;;;;;;2097401;28;20122;-60
2021/01/25 05:35:43;;;;;;;7.78;6.95;;;6.80;65.00;;;;;;2093843;28;20021;-60
2021/01/25 05:37:03;;;;;;;8.68;7.10;;;6.80;65.00;;;;;;2096387;28;20116;-60
2021/01/25 05:38:24;;;;;;;8.13;7.28;;;6.80;65.00;;;;;;2092836;28;20028;-60
2021/01/25 05:39:47;;;;;;;8.45;7.50;;;6.80;65.00;;;;;;2098016;28;20025;-60
2021/01/25 05:41:08;;;;;;;7.90;7.10;;;6.80;64.90;;;;;;2095413;28;20046;-59
2021/01/25 05:42:33;;;;;;;7.68;6.63;;;6.80;64.90;;;;;;2098566;28;20427;-60
2021/01/25 05:43:54;;;;;;;7.80;6.70;;;6.80;64.90;;;;;;2097514;28;20032;-60
2021/01/25 05:45:15;;;;;;;7.80;6.68;;;6.80;64.90;;;;;;2095983;28;20382;-60
2021/01/25 05:46:36;;;;;;;8.38;7.00;;;6.80;64.90;;;;;;2094094;28;20037;-59
2021/01/25 05:47:58;;;;;;;7.30;6.55;;;6.80;64.90;;;;;;2093967;28;20057;-60
2021/01/25 05:49:26;;;;;;;8.70;6.80;;;6.80;64.90;;;;;;2092566;28;20029;-60
2021/01/25 05:50:47;;;;;;;8.82;6.60;;;6.80;64.90;;;;;;2095608;28;20031;-60
2021/01/25 05:52:15;;;;;;;9.52;7.43;;;6.80;64.90;;;;;;2096590;28;20112;-59
2021/01/25 05:53:40;;;;;;;8.80;7.22;;;6.80;65.00;;;;;;2093406;28;20087;-59
2021/01/25 05:55:01;;;;;;;9.05;7.13;;;6.80;65.00;;;;;;2097257;28;20028;-60
2021/01/25 05:56:22;;;;;;;10.73;7.22;;;6.80;65.00;;;;;;2091615;28;20028;-60
2021/01/25 05:57:43;;;;;;;8.52;7.22;;;6.80;65.00;;;;;;2100357;28;20610;-60
2021/01/25 05:59:03;;;;;;;8.48;7.57;;;6.80;65.00;;;;;;2095663;28;20052;-60
2021/01/25 06:00:26;;;;;;;12.00;8.23;;;6.80;65.10;;;;;;2096141;28;20028;-60
2021/01/25 06:01:48;;;;;;;9.45;7.60;;;6.80;65.10;;;;;;2095827;28;20566;-60
2021/01/25 06:03:11;;;;;;;9.68;7.28;;;6.80;65.10;;;;;;2098086;28;20028;-60
2021/01/25 06:04:32;;;;;;;8.57;7.68;;;6.80;65.10;;;;;;2097410;28;20095;-60
2021/01/25 06:05:54;;;;;;;8.18;7.18;;;6.80;65.00;;;;;;2101031;28;20344;-60
2021/01/25 06:07:16;;;;;;;9.45;7.72;;;6.90;65.10;;;;;;2097913;28;20055;-60
2021/01/25 06:08:52;;;;;;;8.98;7.72;;;6.80;64.90;;;;;;2095160;28;20036;-60
2021/01/25 06:10:16;;;;;;;9.10;7.78;;;6.80;64.90;;;;;;2099074;28;20463;-60
2021/01/25 06:11:43;;;;;;;8.30;7.38;;;6.80;64.90;;;;;;2098618;28;20028;-60
2021/01/25 06:13:12;;;;;;;8.93;7.60;;;6.90;64.90;;;;;;2095929;28;20035;-60
2021/01/25 06:14:49;;;;;;;9.45;7.60;;;6.80;64.80;;;;;;2100380;28;20509;-61
2021/01/25 06:16:11;;;;;;;8.70;7.80;;;6.80;64.80;;;;;;2097671;28;20124;-60
2021/01/25 06:17:33;;;;;;;8.13;7.32;;;6.80;64.70;;;;;;2100337;28;20104;-61
2021/01/25 06:19:08;;;;;;;9.48;7.90;;;6.80;64.80;;;;;;2098217;28;20021;-60
2021/01/25 06:20:31;;;;;;;9.75;7.68;;;6.80;64.70;;;;;;2098583;28;20112;-61
2021/01/25 06:21:53;;;;;;;10.07;7.40;;;6.80;64.70;;;;;;2097662;28;20355;-60
2021/01/25 06:23:15;;;;;;;10.38;8.43;;;6.80;64.70;;;;;;2100646;28;20044;-60
2021/01/25 06:24:37;;;;;;;9.60;7.72;;;6.80;64.70;;;;;;2096833;28;20494;-60
2021/01/25 06:25:58;;;;;;;9.98;8.25;;;6.80;64.80;;;;;;2098750;28;20122;-60
2021/01/25 06:27:22;;;;;;;8.88;7.95;;;6.80;64.90;;;;;;2100376;28;20078;-60
2021/01/25 06:28:43;;;;;;;10.10;8.32;;;6.80;64.90;;;;;;2099111;28;20033;-60
2021/01/25 06:30:04;;;;;;;10.10;8.07;;;6.80;64.90;;;;;;2096299;28;20032;-60
2021/01/25 06:31:25;;;;;;;12.35;9.05;;;6.80;65.00;;;;;;2092650;28;20102;-60
2021/01/25 06:32:49;;;;;;;11.18;8.85;;;6.80;65.00;;;;;;2096490;28;20074;-60
2021/01/25 06:34:11;;;;;;;11.65;8.93;;;6.80;64.90;;;;;;2096759;28;20025;-60
2021/01/25 06:35:32;;;;;;;11.18;9.05;;;6.80;64.90;;;;;;2095692;28;20033;-58
2021/01/25 06:36:53;;;;;;;11.70;9.43;;;6.80;64.90;;;;;;2098558;28;20021;-59
2021/01/25 06:38:17;;;;;;;10.77;8.82;;;6.80;65.00;;;;;;2098026;28;20040;-59
2021/01/25 06:39:47;;;;;;;12.63;9.05;;;6.80;65.10;;;;;;2094815;28;20055;-60
2021/01/25 06:41:13;;;;;;;10.27;8.65;;;6.80;65.10;;;;;;2096306;28;20029;-60
2021/01/25 06:42:36;;;;;;;11.38;9.50;;;6.80;65.20;;;;;;2094634;28;20033;-60
2021/01/25 06:43:57;;;;;;;13.18;10.05;;;6.90;65.30;;;;;;2096136;28;20107;-60
2021/01/25 06:45:22;;;;;;;13.13;10.23;;;6.90;65.30;;;;;;2098399;28;20029;-60
2021/01/25 06:46:43;;;;;;;12.73;10.32;;;6.90;65.30;;;;;;2096242;28;20060;-59
2021/01/25 06:48:07;;;;;;;14.75;9.90;;;6.90;65.30;;;;;;2097173;28;20093;-60
2021/01/25 06:49:29;;;;;;;12.65;10.10;;;6.90;65.30;;;;;;2098477;28;20025;-59
2021/01/25 06:50:51;;;;;;;11.63;9.45;;;6.90;65.20;;;;;;2097556;28;20025;-60
2021/01/25 06:52:14;;;;;;;12.43;10.05;;;6.90;65.20;;;;;;2096788;28;20032;-60
2021/01/25 06:53:35;;;;;;;11.15;8.95;;;6.90;65.20;;;;;;2095243;28;20116;-60
2021/01/25 06:55:07;;;;;;;11.82;9.77;;;6.90;65.20;;;;;;2089467;28;20108;-60
2021/01/25 06:56:50;;;;;;;13.02;9.23;;;6.90;65.10;;;;;;2097103;28;20029;-60
2021/01/25 06:58:11;;;;;;;11.27;9.40;;;6.90;65.10;;;;;;2097047;28;20051;-60
2021/01/25 06:59:36;;;;;;;10.73;9.50;;;6.90;65.10;;;;;;2094337;28;20478;-60
2021/01/25 07:01:07;;;;;;;11.23;9.07;;;6.90;65.20;;;;;;2097454;28;20043;-59
2021/01/25 07:02:28;;;;;;;12.40;9.73;;;6.90;65.30;;;;;;2095438;28;20043;-60
2021/01/25 07:03:56;;;;;;;12.75;10.48;;;6.90;65.20;;;;;;2097055;28;20036;-60
2021/01/25 07:05:27;;;;;;;10.85;9.60;;;6.90;65.20;;;;;;2097745;28;20063;-60
2021/01/25 07:06:50;;;;;;;12.82;9.57;;;6.90;65.20;;;;;;2098277;28;20048;-60
2021/01/25 07:08:22;;;;;;;11.73;9.90;;;6.90;65.10;;;;;;2096369;28;20396;-59
2021/01/25 07:09:47;;;;;;;12.52;9.98;;;6.90;65.10;;;;;;2096695;28;20024;-60
2021/01/25 07:11:09;;;;;;;9.82;8.63;;;6.90;65.00;;;;;;2096947;28;20080;-60
2021/01/25 07:12:30;;;;;;;12.88;9.38;;;6.90;65.00;;;;;;2093985;28;20648;-60